sensor_id;sensor_type;location;lat;lon;timestamp;temperature;humidity
18361;SHT31;9308;48.550;9.108;2023-04-01T00:01:19;10.86;74.28
18361;SHT31;9308;48.550;9.108;2023-04-01T00:03:45;10.82;74.53
18361;SHT31;9308;48.550;9.108;2023-04-01T00:06:16;10.68;74.38
18361;SHT31;9308;48.550;9.108;2023-04-01T00:08:42;10.86;74.43
18361;SHT31;9308;48.550;9.108;2023-04-01T00:11:07;10.90;73.46
18361;SHT31;9308;48.550;9.108;2023-04-01T00:13:33;10.99;73.73
18361;SHT31;9308;48.550;9.108;2023-04-01T00:15:58;10.53;73.48
18361;SHT31;9308;48.550;9.108;2023-04-01T00:18:24;10.27;74.92
18361;SHT31;9308;48.550;9.108;2023-04-01T00:20:52;10.66;74.75
18361;SHT31;9308;48.550;9.108;2023-04-01T00:23:17;10.71;73.56
18361;SHT31;9308;48.550;9.108;2023-04-01T00:25:44;10.77;74.04
18361;SHT31;9308;48.550;9.108;2023-04-01T00:28:10;10.90;73.41
18361;SHT31;9308;48.550;9.108;2023-04-01T00:30:36;10.66;73.02
18361;SHT31;9308;48.550;9.108;2023-04-01T00:33:02;10.62;73.68
18361;SHT31;9308;48.550;9.108;2023-04-01T00:35:27;10.44;74.33
18361;SHT31;9308;48.550;9.108;2023-04-01T00:37:53;10.71;73.36
18361;SHT31;9308;48.550;9.108;2023-04-01T00:40:33;10.62;73.71
18361;SHT31;9308;48.550;9.108;2023-04-01T00:42:59;10.72;73.31
18361;SHT31;9308;48.550;9.108;2023-04-01T00:45:37;10.53;73.78
18361;SHT31;9308;48.550;9.108;2023-04-01T00:48:07;10.73;73.75
18361;SHT31;9308;48.550;9.108;2023-04-01T00:50:35;10.56;73.57
18361;SHT31;9308;48.550;9.108;2023-04-01T00:53:02;10.72;73.30
18361;SHT31;9308;48.550;9.108;2023-04-01T00:55:30;10.90;73.19
18361;SHT31;9308;48.550;9.108;2023-04-01T00:57:59;11.06;72.13
18361;SHT31;9308;48.550;9.108;2023-04-01T01:00:25;10.84;72.79
18361;SHT31;9308;48.550;9.108;2023-04-01T01:02:51;10.55;72.98
18361;SHT31;9308;48.550;9.108;2023-04-01T01:05:21;10.77;72.82
18361;SHT31;9308;48.550;9.108;2023-04-01T01:08:10;10.65;73.01
18361;SHT31;9308;48.550;9.108;2023-04-01T01:10:42;11.00;72.85
18361;SHT31;9308;48.550;9.108;2023-04-01T01:13:26;10.89;71.79
18361;SHT31;9308;48.550;9.108;2023-04-01T01:16:03;10.77;72.63
18361;SHT31;9308;48.550;9.108;2023-04-01T01:24:13;10.59;73.54
18361;SHT31;9308;48.550;9.108;2023-04-01T01:27:09;10.55;72.53
18361;SHT31;9308;48.550;9.108;2023-04-01T01:29:45;10.68;72.78
18361;SHT31;9308;48.550;9.108;2023-04-01T01:37:30;10.68;72.49
18361;SHT31;9308;48.550;9.108;2023-04-01T01:40:00;10.75;72.16
18361;SHT31;9308;48.550;9.108;2023-04-01T01:42:28;11.24;71.36
18361;SHT31;9308;48.550;9.108;2023-04-01T01:44:57;11.10;71.19
18361;SHT31;9308;48.550;9.108;2023-04-01T01:47:25;10.93;70.59
18361;SHT31;9308;48.550;9.108;2023-04-01T01:49:53;10.96;70.63
18361;SHT31;9308;48.550;9.108;2023-04-01T01:52:19;10.83;70.42
18361;SHT31;9308;48.550;9.108;2023-04-01T01:54:53;10.71;70.66
18361;SHT31;9308;48.550;9.108;2023-04-01T01:57:23;10.17;72.16
18361;SHT31;9308;48.550;9.108;2023-04-01T01:59:51;10.50;71.94
18361;SHT31;9308;48.550;9.108;2023-04-01T02:02:18;10.24;72.29
18361;SHT31;9308;48.550;9.108;2023-04-01T02:04:45;10.25;72.25
18361;SHT31;9308;48.550;9.108;2023-04-01T02:07:17;10.32;71.30
18361;SHT31;9308;48.550;9.108;2023-04-01T02:09:43;10.32;72.65
18361;SHT31;9308;48.550;9.108;2023-04-01T02:12:10;10.48;72.14
18361;SHT31;9308;48.550;9.108;2023-04-01T02:14:57;10.69;70.22
18361;SHT31;9308;48.550;9.108;2023-04-01T02:17:26;10.58;71.23
18361;SHT31;9308;48.550;9.108;2023-04-01T02:19:58;10.45;71.84
18361;SHT31;9308;48.550;9.108;2023-04-01T02:22:30;10.76;71.44
18361;SHT31;9308;48.550;9.108;2023-04-01T02:25:06;10.65;70.59
18361;SHT31;9308;48.550;9.108;2023-04-01T02:27:33;10.49;71.35
18361;SHT31;9308;48.550;9.108;2023-04-01T02:29:59;10.29;71.77
18361;SHT31;9308;48.550;9.108;2023-04-01T02:32:25;10.14;72.07
18361;SHT31;9308;48.550;9.108;2023-04-01T02:34:51;10.07;71.89
18361;SHT31;9308;48.550;9.108;2023-04-01T02:37:17;10.00;72.89
18361;SHT31;9308;48.550;9.108;2023-04-01T02:39:43;10.08;72.25
18361;SHT31;9308;48.550;9.108;2023-04-01T02:42:09;10.04;73.24
18361;SHT31;9308;48.550;9.108;2023-04-01T02:44:35;10.15;73.62
18361;SHT31;9308;48.550;9.108;2023-04-01T02:47:00;10.28;71.95
18361;SHT31;9308;48.550;9.108;2023-04-01T02:49:26;10.52;71.89
18361;SHT31;9308;48.550;9.108;2023-04-01T02:51:51;10.07;72.12
18361;SHT31;9308;48.550;9.108;2023-04-01T02:54:17;10.14;71.54
18361;SHT31;9308;48.550;9.108;2023-04-01T02:56:43;10.04;72.87
18361;SHT31;9308;48.550;9.108;2023-04-01T02:59:09;10.21;72.84
18361;SHT31;9308;48.550;9.108;2023-04-01T03:01:34;10.11;71.85
18361;SHT31;9308;48.550;9.108;2023-04-01T03:04:00;10.31;71.89
18361;SHT31;9308;48.550;9.108;2023-04-01T03:06:25;10.10;72.53
18361;SHT31;9308;48.550;9.108;2023-04-01T03:08:51;10.31;71.58
18361;SHT31;9308;48.550;9.108;2023-04-01T03:11:16;10.13;71.36
18361;SHT31;9308;48.550;9.108;2023-04-01T03:13:41;10.00;71.72
18361;SHT31;9308;48.550;9.108;2023-04-01T03:16:07;10.04;71.43
18361;SHT31;9308;48.550;9.108;2023-04-01T03:18:33;9.98;71.53
18361;SHT31;9308;48.550;9.108;2023-04-01T03:21:15;9.83;71.65
18361;SHT31;9308;48.550;9.108;2023-04-01T03:23:41;9.86;71.80
18361;SHT31;9308;48.550;9.108;2023-04-01T03:26:06;9.97;71.75
18361;SHT31;9308;48.550;9.108;2023-04-01T03:28:32;9.89;70.96
18361;SHT31;9308;48.550;9.108;2023-04-01T03:30:57;9.96;71.13
18361;SHT31;9308;48.550;9.108;2023-04-01T03:33:23;9.97;70.64
18361;SHT31;9308;48.550;9.108;2023-04-01T03:35:48;9.74;71.13
18361;SHT31;9308;48.550;9.108;2023-04-01T03:38:17;9.79;71.07
18361;SHT31;9308;48.550;9.108;2023-04-01T03:40:43;9.96;70.16
18361;SHT31;9308;48.550;9.108;2023-04-01T03:43:08;9.90;70.53
18361;SHT31;9308;48.550;9.108;2023-04-01T03:45:36;9.98;70.45
18361;SHT31;9308;48.550;9.108;2023-04-01T03:48:01;9.62;70.85
18361;SHT31;9308;48.550;9.108;2023-04-01T03:50:26;9.77;71.34
18361;SHT31;9308;48.550;9.108;2023-04-01T03:52:52;10.07;70.09
18361;SHT31;9308;48.550;9.108;2023-04-01T03:55:17;10.11;70.26
18361;SHT31;9308;48.550;9.108;2023-04-01T03:57:43;9.90;70.33
18361;SHT31;9308;48.550;9.108;2023-04-01T04:00:09;9.76;71.24
18361;SHT31;9308;48.550;9.108;2023-04-01T04:02:35;10.00;70.20
18361;SHT31;9308;48.550;9.108;2023-04-01T04:05:01;10.00;71.20
18361;SHT31;9308;48.550;9.108;2023-04-01T04:07:27;10.03;70.45
18361;SHT31;9308;48.550;9.108;2023-04-01T04:09:52;9.90;71.11
18361;SHT31;9308;48.550;9.108;2023-04-01T04:12:17;10.18;70.25
18361;SHT31;9308;48.550;9.108;2023-04-01T04:14:43;10.24;69.94
18361;SHT31;9308;48.550;9.108;2023-04-01T04:17:10;10.21;69.76
18361;SHT31;9308;48.550;9.108;2023-04-01T04:19:41;10.39;69.71
18361;SHT31;9308;48.550;9.108;2023-04-01T04:22:07;10.14;69.56
18361;SHT31;9308;48.550;9.108;2023-04-01T04:24:34;10.41;69.38
18361;SHT31;9308;48.550;9.108;2023-04-01T04:27:00;10.03;69.77
18361;SHT31;9308;48.550;9.108;2023-04-01T04:29:25;10.25;69.23
18361;SHT31;9308;48.550;9.108;2023-04-01T04:31:51;9.93;70.61
18361;SHT31;9308;48.550;9.108;2023-04-01T04:34:16;10.07;70.29
18361;SHT31;9308;48.550;9.108;2023-04-01T04:36:44;9.94;70.76
18361;SHT31;9308;48.550;9.108;2023-04-01T04:39:10;9.91;71.03
18361;SHT31;9308;48.550;9.108;2023-04-01T04:41:37;9.71;71.31
18361;SHT31;9308;48.550;9.108;2023-04-01T04:44:03;9.80;70.70
18361;SHT31;9308;48.550;9.108;2023-04-01T04:46:28;9.83;71.10
18361;SHT31;9308;48.550;9.108;2023-04-01T04:48:54;9.73;71.16
18361;SHT31;9308;48.550;9.108;2023-04-01T04:51:20;9.85;71.38
18361;SHT31;9308;48.550;9.108;2023-04-01T04:53:46;9.91;71.70
18361;SHT31;9308;48.550;9.108;2023-04-01T04:56:11;9.87;72.06
18361;SHT31;9308;48.550;9.108;2023-04-01T04:58:38;9.85;71.08
18361;SHT31;9308;48.550;9.108;2023-04-01T05:01:12;9.87;71.47
18361;SHT31;9308;48.550;9.108;2023-04-01T05:03:38;10.03;71.45
18361;SHT31;9308;48.550;9.108;2023-04-01T05:06:04;9.80;71.77
18361;SHT31;9308;48.550;9.108;2023-04-01T05:08:30;9.53;72.51
18361;SHT31;9308;48.550;9.108;2023-04-01T05:10:55;9.69;71.70
18361;SHT31;9308;48.550;9.108;2023-04-01T05:13:21;9.96;71.11
18361;SHT31;9308;48.550;9.108;2023-04-01T05:15:46;9.73;71.33
18361;SHT31;9308;48.550;9.108;2023-04-01T05:18:12;9.73;72.13
18361;SHT31;9308;48.550;9.108;2023-04-01T05:20:37;9.66;71.61
18361;SHT31;9308;48.550;9.108;2023-04-01T05:23:03;9.69;71.32
18361;SHT31;9308;48.550;9.108;2023-04-01T05:25:28;9.87;72.00
18361;SHT31;9308;48.550;9.108;2023-04-01T05:27:54;9.87;71.38
18361;SHT31;9308;48.550;9.108;2023-04-01T05:30:19;9.96;70.90
18361;SHT31;9308;48.550;9.108;2023-04-01T05:32:45;9.77;71.07
18361;SHT31;9308;48.550;9.108;2023-04-01T05:35:11;9.94;70.60
18361;SHT31;9308;48.550;9.108;2023-04-01T05:37:36;10.13;70.38
18361;SHT31;9308;48.550;9.108;2023-04-01T05:40:02;10.08;70.36
18361;SHT31;9308;48.550;9.108;2023-04-01T05:42:28;10.04;70.62
18361;SHT31;9308;48.550;9.108;2023-04-01T05:44:54;10.29;70.63
18361;SHT31;9308;48.550;9.108;2023-04-01T05:47:20;10.06;70.12
18361;SHT31;9308;48.550;9.108;2023-04-01T05:49:46;9.80;71.15
18361;SHT31;9308;48.550;9.108;2023-04-01T05:52:11;9.70;71.65
18361;SHT31;9308;48.550;9.108;2023-04-01T05:54:37;9.86;71.60
18361;SHT31;9308;48.550;9.108;2023-04-01T05:57:02;9.97;70.86
18361;SHT31;9308;48.550;9.108;2023-04-01T05:59:28;9.96;70.35
18361;SHT31;9308;48.550;9.108;2023-04-01T06:01:53;9.73;70.98
18361;SHT31;9308;48.550;9.108;2023-04-01T06:04:19;9.90;71.54
18361;SHT31;9308;48.550;9.108;2023-04-01T06:06:44;9.82;70.69
18361;SHT31;9308;48.550;9.108;2023-04-01T06:09:19;10.13;70.33
18361;SHT31;9308;48.550;9.108;2023-04-01T06:15:13;10.21;70.13
18361;SHT31;9308;48.550;9.108;2023-04-01T06:18:03;10.11;69.80
18361;SHT31;9308;48.550;9.108;2023-04-01T06:26:17;10.18;69.58
18361;SHT31;9308;48.550;9.108;2023-04-01T06:29:08;10.22;70.00
18361;SHT31;9308;48.550;9.108;2023-04-01T06:31:57;10.32;69.72
18361;SHT31;9308;48.550;9.108;2023-04-01T06:40:35;10.24;69.84
18361;SHT31;9308;48.550;9.108;2023-04-01T06:46:21;10.17;69.86
18361;SHT31;9308;48.550;9.108;2023-04-01T06:49:55;10.34;69.69
18361;SHT31;9308;48.550;9.108;2023-04-01T06:52:22;10.76;69.21
18361;SHT31;9308;48.550;9.108;2023-04-01T06:55:15;10.71;69.27
18361;SHT31;9308;48.550;9.108;2023-04-01T06:57:47;10.69;69.08
18361;SHT31;9308;48.550;9.108;2023-04-01T07:00:37;10.69;69.04
18361;SHT31;9308;48.550;9.108;2023-04-01T07:05:35;10.48;69.69
18361;SHT31;9308;48.550;9.108;2023-04-01T07:08:04;10.34;69.78
18361;SHT31;9308;48.550;9.108;2023-04-01T07:10:38;10.31;70.16
18361;SHT31;9308;48.550;9.108;2023-04-01T07:13:14;10.36;69.96
18361;SHT31;9308;48.550;9.108;2023-04-01T07:15:42;10.38;69.43
18361;SHT31;9308;48.550;9.108;2023-04-01T07:18:19;10.48;69.71
18361;SHT31;9308;48.550;9.108;2023-04-01T07:20:47;10.35;69.82
18361;SHT31;9308;48.550;9.108;2023-04-01T07:23:23;10.29;69.79
18361;SHT31;9308;48.550;9.108;2023-04-01T07:25:55;10.62;70.39
18361;SHT31;9308;48.550;9.108;2023-04-01T07:28:23;10.66;69.90
18361;SHT31;9308;48.550;9.108;2023-04-01T07:31:17;10.42;69.97
18361;SHT31;9308;48.550;9.108;2023-04-01T07:34:11;10.50;70.31
18361;SHT31;9308;48.550;9.108;2023-04-01T07:39:47;10.65;70.03
18361;SHT31;9308;48.550;9.108;2023-04-01T07:42:41;10.62;69.98
18361;SHT31;9308;48.550;9.108;2023-04-01T07:48:09;10.79;70.50
18361;SHT31;9308;48.550;9.108;2023-04-01T07:50:52;10.58;70.36
18361;SHT31;9308;48.550;9.108;2023-04-01T07:53:29;10.62;70.29
18361;SHT31;9308;48.550;9.108;2023-04-01T07:56:22;10.66;70.26
18361;SHT31;9308;48.550;9.108;2023-04-01T08:01:29;10.52;70.30
18361;SHT31;9308;48.550;9.108;2023-04-01T08:07:13;10.69;69.79
18361;SHT31;9308;48.550;9.108;2023-04-01T08:12:27;10.61;70.64
18361;SHT31;9308;48.550;9.108;2023-04-01T08:17:47;10.50;69.93
18361;SHT31;9308;48.550;9.108;2023-04-01T08:20:23;10.44;70.99
18361;SHT31;9308;48.550;9.108;2023-04-01T08:23:07;10.52;71.18
18361;SHT31;9308;48.550;9.108;2023-04-01T08:25:38;10.63;71.41
18361;SHT31;9308;48.550;9.108;2023-04-01T08:30:49;10.56;71.98
18361;SHT31;9308;48.550;9.108;2023-04-01T08:33:24;10.76;71.68
18361;SHT31;9308;48.550;9.108;2023-04-01T08:36:08;10.73;71.71
18361;SHT31;9308;48.550;9.108;2023-04-01T08:38:47;10.80;71.25
18361;SHT31;9308;48.550;9.108;2023-04-01T08:49:32;10.52;71.79
18361;SHT31;9308;48.550;9.108;2023-04-01T09:00:27;10.68;71.35
18361;SHT31;9308;48.550;9.108;2023-04-01T09:08:52;10.79;71.72
18361;SHT31;9308;48.550;9.108;2023-04-01T09:14:20;10.69;72.67
18361;SHT31;9308;48.550;9.108;2023-04-01T09:17:23;10.58;72.77
18361;SHT31;9308;48.550;9.108;2023-04-01T09:26:17;10.96;72.69
18361;SHT31;9308;48.550;9.108;2023-04-01T09:32:00;10.99;73.45
18361;SHT31;9308;48.550;9.108;2023-04-01T09:35:01;11.01;73.32
18361;SHT31;9308;48.550;9.108;2023-04-01T09:40:34;11.01;73.96
18361;SHT31;9308;48.550;9.108;2023-04-01T09:46:10;11.04;73.28
18361;SHT31;9308;48.550;9.108;2023-04-01T09:48:43;11.31;73.27
18361;SHT31;9308;48.550;9.108;2023-04-01T09:51:33;11.08;73.51
18361;SHT31;9308;48.550;9.108;2023-04-01T09:54:30;11.10;73.18
18361;SHT31;9308;48.550;9.108;2023-04-01T09:57:22;11.22;73.69
18361;SHT31;9308;48.550;9.108;2023-04-01T10:05:58;11.17;73.51
18361;SHT31;9308;48.550;9.108;2023-04-01T10:14:20;11.15;74.12
18361;SHT31;9308;48.550;9.108;2023-04-01T10:19:59;10.84;74.73
18361;SHT31;9308;48.550;9.108;2023-04-01T10:28:10;10.46;75.27
18361;SHT31;9308;48.550;9.108;2023-04-01T10:30:52;10.61;75.47
18361;SHT31;9308;48.550;9.108;2023-04-01T10:45:19;10.79;74.46
18361;SHT31;9308;48.550;9.108;2023-04-01T10:51:04;10.80;74.91
18361;SHT31;9308;48.550;9.108;2023-04-01T10:56:40;11.18;74.07
18361;SHT31;9308;48.550;9.108;2023-04-01T10:59:44;10.96;74.53
18361;SHT31;9308;48.550;9.108;2023-04-01T11:14:17;11.17;73.24
18361;SHT31;9308;48.550;9.108;2023-04-01T11:17:10;11.20;73.38
18361;SHT31;9308;48.550;9.108;2023-04-01T11:23:05;11.27;74.07
18361;SHT31;9308;48.550;9.108;2023-04-01T11:39:20;10.90;72.37
18361;SHT31;9308;48.550;9.108;2023-04-01T11:45:00;10.90;71.68
18361;SHT31;9308;48.550;9.108;2023-04-01T11:55:32;11.17;71.57
18361;SHT31;9308;48.550;9.108;2023-04-01T11:58:11;11.15;72.03
18361;SHT31;9308;48.550;9.108;2023-04-01T12:10:27;10.97;71.81
18361;SHT31;9308;48.550;9.108;2023-04-01T12:16:07;11.29;72.07
18361;SHT31;9308;48.550;9.108;2023-04-01T12:26:40;11.15;72.15
18361;SHT31;9308;48.550;9.108;2023-04-01T12:29:35;11.37;71.47
18361;SHT31;9308;48.550;9.108;2023-04-01T12:43:43;11.77;67.94
18361;SHT31;9308;48.550;9.108;2023-04-01T12:51:23;11.56;67.91
18361;SHT31;9308;48.550;9.108;2023-04-01T13:02:48;12.05;67.97
18361;SHT31;9308;48.550;9.108;2023-04-01T13:05:31;11.37;68.13
18361;SHT31;9308;48.550;9.108;2023-04-01T13:08:14;11.28;69.39
18361;SHT31;9308;48.550;9.108;2023-04-01T13:16:27;12.62;65.06
18361;SHT31;9308;48.550;9.108;2023-04-01T13:19:09;13.36;63.20
18361;SHT31;9308;48.550;9.108;2023-04-01T13:22:00;13.03;63.92
18361;SHT31;9308;48.550;9.108;2023-04-01T13:24:44;12.51;65.40
18361;SHT31;9308;48.550;9.108;2023-04-01T13:27:16;12.27;66.40
18361;SHT31;9308;48.550;9.108;2023-04-01T13:30:08;11.69;64.89
18361;SHT31;9308;48.550;9.108;2023-04-01T13:32:51;11.91;66.19
18361;SHT31;9308;48.550;9.108;2023-04-01T13:35:39;11.49;66.88
18361;SHT31;9308;48.550;9.108;2023-04-01T13:38:30;11.63;66.33
18361;SHT31;9308;48.550;9.108;2023-04-01T13:43:57;11.47;67.36
18361;SHT31;9308;48.550;9.108;2023-04-01T13:55:48;11.80;66.27
18361;SHT31;9308;48.550;9.108;2023-04-01T13:58:15;12.14;65.85
18361;SHT31;9308;48.550;9.108;2023-04-01T14:05:52;11.86;66.12
18361;SHT31;9308;48.550;9.108;2023-04-01T14:08:33;11.79;66.32
18361;SHT31;9308;48.550;9.108;2023-04-01T14:25:01;11.93;66.42
18361;SHT31;9308;48.550;9.108;2023-04-01T14:27:59;11.41;67.18
18361;SHT31;9308;48.550;9.108;2023-04-01T14:30:50;11.37;67.67
18361;SHT31;9308;48.550;9.108;2023-04-01T14:33:46;11.69;66.22
18361;SHT31;9308;48.550;9.108;2023-04-01T14:38:54;11.80;66.49
18361;SHT31;9308;48.550;9.108;2023-04-01T14:41:34;11.91;66.00
18361;SHT31;9308;48.550;9.108;2023-04-01T14:49:43;12.34;65.83
18361;SHT31;9308;48.550;9.108;2023-04-01T14:52:11;12.08;66.18
18361;SHT31;9308;48.550;9.108;2023-04-01T14:54:43;12.11;66.36
18361;SHT31;9308;48.550;9.108;2023-04-01T14:57:23;11.96;66.34
18361;SHT31;9308;48.550;9.108;2023-04-01T15:05:39;12.08;66.13
18361;SHT31;9308;48.550;9.108;2023-04-01T15:08:17;11.97;66.05
18361;SHT31;9308;48.550;9.108;2023-04-01T15:13:52;11.79;67.44
18361;SHT31;9308;48.550;9.108;2023-04-01T15:16:27;12.01;66.86
18361;SHT31;9308;48.550;9.108;2023-04-01T15:21:42;11.48;67.80
18361;SHT31;9308;48.550;9.108;2023-04-01T15:27:25;11.37;68.52
18361;SHT31;9308;48.550;9.108;2023-04-01T15:30:04;11.27;69.37
18361;SHT31;9308;48.550;9.108;2023-04-01T15:35:49;11.39;69.20
18361;SHT31;9308;48.550;9.108;2023-04-01T15:38:46;11.35;69.68
18361;SHT31;9308;48.550;9.108;2023-04-01T15:43:50;11.24;69.73
18361;SHT31;9308;48.550;9.108;2023-04-01T15:46:44;11.14;69.63
18361;SHT31;9308;48.550;9.108;2023-04-01T15:51:47;11.35;69.62
18361;SHT31;9308;48.550;9.108;2023-04-01T15:54:39;11.11;69.84
18361;SHT31;9308;48.550;9.108;2023-04-01T15:59:47;11.00;69.73
18361;SHT31;9308;48.550;9.108;2023-04-01T16:02:25;11.32;69.06
18361;SHT31;9308;48.550;9.108;2023-04-01T16:05:25;11.11;68.42
18361;SHT31;9308;48.550;9.108;2023-04-01T16:10:48;10.99;68.87
18361;SHT31;9308;48.550;9.108;2023-04-01T16:19:08;10.93;68.69
18361;SHT31;9308;48.550;9.108;2023-04-01T16:21:48;11.14;67.69
18361;SHT31;9308;48.550;9.108;2023-04-01T16:27:12;10.99;67.90
18361;SHT31;9308;48.550;9.108;2023-04-01T16:29:47;11.11;67.81
18361;SHT31;9308;48.550;9.108;2023-04-01T16:32:19;11.21;67.50
18361;SHT31;9308;48.550;9.108;2023-04-01T16:35:04;11.20;66.81
18361;SHT31;9308;48.550;9.108;2023-04-01T16:38:09;11.10;67.64
18361;SHT31;9308;48.550;9.108;2023-04-01T16:40:57;11.04;67.01
18361;SHT31;9308;48.550;9.108;2023-04-01T16:43:28;11.18;67.14
18361;SHT31;9308;48.550;9.108;2023-04-01T16:54:58;11.29;66.88
18361;SHT31;9308;48.550;9.108;2023-04-01T16:57:26;11.28;67.01
18361;SHT31;9308;48.550;9.108;2023-04-01T17:02:57;11.20;67.33
18361;SHT31;9308;48.550;9.108;2023-04-01T17:11:19;11.11;67.78
18361;SHT31;9308;48.550;9.108;2023-04-01T17:14:14;11.14;68.24
18361;SHT31;9308;48.550;9.108;2023-04-01T17:16:56;11.18;67.98
18361;SHT31;9308;48.550;9.108;2023-04-01T17:19:32;11.11;68.50
18361;SHT31;9308;48.550;9.108;2023-04-01T17:27:21;11.03;68.86
18361;SHT31;9308;48.550;9.108;2023-04-01T17:35:42;11.15;68.50
18361;SHT31;9308;48.550;9.108;2023-04-01T17:38:34;11.20;68.56
18361;SHT31;9308;48.550;9.108;2023-04-01T17:41:20;11.37;67.98
18361;SHT31;9308;48.550;9.108;2023-04-01T17:49:39;10.82;68.46
18361;SHT31;9308;48.550;9.108;2023-04-01T17:52:27;10.76;68.48
18361;SHT31;9308;48.550;9.108;2023-04-01T17:55:26;10.49;69.24
18361;SHT31;9308;48.550;9.108;2023-04-01T17:58:18;10.59;69.20
18361;SHT31;9308;48.550;9.108;2023-04-01T18:00:59;10.58;69.47
18361;SHT31;9308;48.550;9.108;2023-04-01T18:15:06;10.53;69.39
18361;SHT31;9308;48.550;9.108;2023-04-01T18:23:21;10.72;68.40
18361;SHT31;9308;48.550;9.108;2023-04-01T18:25:53;10.56;69.84
18361;SHT31;9308;48.550;9.108;2023-04-01T18:28:38;10.66;70.83
18361;SHT31;9308;48.550;9.108;2023-04-01T18:31:11;10.59;71.53
18361;SHT31;9308;48.550;9.108;2023-04-01T18:33:54;10.76;72.36
18361;SHT31;9308;48.550;9.108;2023-04-01T18:39:40;10.44;73.06
18361;SHT31;9308;48.550;9.108;2023-04-01T18:42:24;10.36;74.98
18361;SHT31;9308;48.550;9.108;2023-04-01T18:45:01;10.45;75.24
18361;SHT31;9308;48.550;9.108;2023-04-01T18:47:47;10.11;77.07
18361;SHT31;9308;48.550;9.108;2023-04-01T18:50:23;10.28;76.28
18361;SHT31;9308;48.550;9.108;2023-04-01T18:52:56;10.03;76.98
18361;SHT31;9308;48.550;9.108;2023-04-01T18:55:37;10.07;77.52
18361;SHT31;9308;48.550;9.108;2023-04-01T19:00:43;10.20;77.06
18361;SHT31;9308;48.550;9.108;2023-04-01T19:05:38;10.39;75.93
18361;SHT31;9308;48.550;9.108;2023-04-01T19:08:17;10.13;75.96
18361;SHT31;9308;48.550;9.108;2023-04-01T19:21:44;9.67;75.87
18361;SHT31;9308;48.550;9.108;2023-04-01T19:24:22;9.85;74.80
18361;SHT31;9308;48.550;9.108;2023-04-01T19:27:14;9.96;74.62
18361;SHT31;9308;48.550;9.108;2023-04-01T19:35:38;9.56;75.20
18361;SHT31;9308;48.550;9.108;2023-04-01T19:38:36;9.38;75.29
18361;SHT31;9308;48.550;9.108;2023-04-01T19:41:36;9.22;75.63
18361;SHT31;9308;48.550;9.108;2023-04-01T19:44:23;9.30;76.31
18361;SHT31;9308;48.550;9.108;2023-04-01T19:46:58;9.46;75.24
18361;SHT31;9308;48.550;9.108;2023-04-01T19:49:49;9.31;75.36
18361;SHT31;9308;48.550;9.108;2023-04-01T19:52:20;9.22;75.50
18361;SHT31;9308;48.550;9.108;2023-04-01T19:54:58;9.07;76.20
18361;SHT31;9308;48.550;9.108;2023-04-01T20:08:33;9.00;76.31
18361;SHT31;9308;48.550;9.108;2023-04-01T20:11:14;9.30;75.49
18361;SHT31;9308;48.550;9.108;2023-04-01T20:16:15;9.21;75.59
18361;SHT31;9308;48.550;9.108;2023-04-01T20:21:31;9.14;75.68
18361;SHT31;9308;48.550;9.108;2023-04-01T20:24:20;9.21;75.21
18361;SHT31;9308;48.550;9.108;2023-04-01T20:27:08;9.08;75.99
18361;SHT31;9308;48.550;9.108;2023-04-01T20:29:41;9.01;77.05
18361;SHT31;9308;48.550;9.108;2023-04-01T20:32:41;9.15;76.34
18361;SHT31;9308;48.550;9.108;2023-04-01T20:35:29;9.03;76.64
18361;SHT31;9308;48.550;9.108;2023-04-01T20:38:41;9.03;77.21
18361;SHT31;9308;48.550;9.108;2023-04-01T20:43:50;9.22;77.01
18361;SHT31;9308;48.550;9.108;2023-04-01T20:46:43;9.27;76.03
18361;SHT31;9308;48.550;9.108;2023-04-01T20:52:02;9.25;75.74
18361;SHT31;9308;48.550;9.108;2023-04-01T20:54:48;9.08;76.45
18361;SHT31;9308;48.550;9.108;2023-04-01T20:57:45;9.18;76.00
18361;SHT31;9308;48.550;9.108;2023-04-01T21:00:29;9.32;75.89
18361;SHT31;9308;48.550;9.108;2023-04-01T21:03:10;9.28;75.89
18361;SHT31;9308;48.550;9.108;2023-04-01T21:11:27;9.49;75.46
18361;SHT31;9308;48.550;9.108;2023-04-01T21:14:04;9.24;76.91
18361;SHT31;9308;48.550;9.108;2023-04-01T21:19:56;9.24;76.57
18361;SHT31;9308;48.550;9.108;2023-04-01T21:22:40;9.01;77.10
18361;SHT31;9308;48.550;9.108;2023-04-01T21:25:22;8.89;77.37
18361;SHT31;9308;48.550;9.108;2023-04-01T21:28:16;9.07;76.88
18361;SHT31;9308;48.550;9.108;2023-04-01T21:31:04;9.04;77.55
18361;SHT31;9308;48.550;9.108;2023-04-01T21:44:38;8.94;77.71
18361;SHT31;9308;48.550;9.108;2023-04-01T21:50:19;8.80;78.23
18361;SHT31;9308;48.550;9.108;2023-04-01T21:55:30;8.84;77.69
18361;SHT31;9308;48.550;9.108;2023-04-01T22:00:42;8.75;77.99
18361;SHT31;9308;48.550;9.108;2023-04-01T22:03:30;8.79;77.31
18361;SHT31;9308;48.550;9.108;2023-04-01T22:11:20;8.79;77.17
18361;SHT31;9308;48.550;9.108;2023-04-01T22:14:05;8.56;76.87
18361;SHT31;9308;48.550;9.108;2023-04-01T22:22:08;8.53;76.54
18361;SHT31;9308;48.550;9.108;2023-04-01T22:27:30;8.63;76.53
18361;SHT31;9308;48.550;9.108;2023-04-01T22:30:07;8.76;75.84
18361;SHT31;9308;48.550;9.108;2023-04-01T22:32:42;8.73;76.09
18361;SHT31;9308;48.550;9.108;2023-04-01T22:35:29;8.69;76.41
18361;SHT31;9308;48.550;9.108;2023-04-01T22:41:14;8.69;77.02
18361;SHT31;9308;48.550;9.108;2023-04-01T22:43:45;8.50;76.96
18361;SHT31;9308;48.550;9.108;2023-04-01T22:46:35;8.28;77.66
18361;SHT31;9308;48.550;9.108;2023-04-01T22:49:18;8.56;77.07
18361;SHT31;9308;48.550;9.108;2023-04-01T22:52:04;8.49;76.87
18361;SHT31;9308;48.550;9.108;2023-04-01T22:54:35;8.34;77.31
18361;SHT31;9308;48.550;9.108;2023-04-01T22:57:12;8.48;76.78
18361;SHT31;9308;48.550;9.108;2023-04-01T22:59:46;8.32;77.04
18361;SHT31;9308;48.550;9.108;2023-04-01T23:02:14;8.41;77.04
18361;SHT31;9308;48.550;9.108;2023-04-01T23:04:43;8.31;77.15
18361;SHT31;9308;48.550;9.108;2023-04-01T23:07:36;8.37;77.11
18361;SHT31;9308;48.550;9.108;2023-04-01T23:10:44;8.14;77.60
18361;SHT31;9308;48.550;9.108;2023-04-01T23:13:20;7.94;77.91
18361;SHT31;9308;48.550;9.108;2023-04-01T23:15:47;7.97;78.24
18361;SHT31;9308;48.550;9.108;2023-04-01T23:18:26;7.90;78.49
18361;SHT31;9308;48.550;9.108;2023-04-01T23:20:58;8.01;78.34
18361;SHT31;9308;48.550;9.108;2023-04-01T23:23:35;8.18;77.71
18361;SHT31;9308;48.550;9.108;2023-04-01T23:26:18;8.18;77.53
18361;SHT31;9308;48.550;9.108;2023-04-01T23:28:55;8.20;77.35
18361;SHT31;9308;48.550;9.108;2023-04-01T23:31:34;8.20;77.86
18361;SHT31;9308;48.550;9.108;2023-04-01T23:36:27;8.11;78.08
18361;SHT31;9308;48.550;9.108;2023-04-01T23:38:53;8.18;78.04
18361;SHT31;9308;48.550;9.108;2023-04-01T23:41:28;8.34;77.20
18361;SHT31;9308;48.550;9.108;2023-04-01T23:44:05;8.16;77.43
18361;SHT31;9308;48.550;9.108;2023-04-01T23:46:33;8.07;77.43
18361;SHT31;9308;48.550;9.108;2023-04-01T23:49:01;8.00;77.57
18361;SHT31;9308;48.550;9.108;2023-04-01T23:51:35;7.99;77.88
18361;SHT31;9308;48.550;9.108;2023-04-01T23:56:54;7.91;77.59
18361;SHT31;9308;48.550;9.108;2023-04-01T23:59:28;7.89;77.69
